createdAt,value
2022-08-16T00:00:05.274Z,100
2022-08-16T00:00:57.463Z,100
2022-08-16T00:02:00.722Z,100
2022-08-16T00:02:57.664Z,100
2022-08-16T00:03:57.094Z,100
2022-08-16T00:05:01.272Z,100
2022-08-16T00:05:58.527Z,100
2022-08-16T00:06:57.071Z,100
2022-08-16T00:07:58.371Z,100
2022-08-16T00:08:57.643Z,100
2022-08-16T00:09:57.894Z,100
2022-08-16T00:10:59.185Z,100
2022-08-16T00:12:00.421Z,100
2022-08-16T00:12:57.134Z,100
2022-08-16T00:13:57.108Z,100
2022-08-16T00:14:58.101Z,100
2022-08-16T00:15:57.101Z,100
2022-08-16T00:17:11.982Z,100
2022-08-16T00:18:00.306Z,100
2022-08-16T00:18:59.141Z,100
2022-08-16T00:19:57.109Z,100
2022-08-16T00:20:57.107Z,100
2022-08-16T00:22:06.775Z,100
2022-08-16T00:22:57.125Z,100
2022-08-16T00:23:57.091Z,100
2022-08-16T00:24:57.095Z,100
2022-08-16T00:26:34.129Z,100
2022-08-16T00:26:57.100Z,100
2022-08-16T00:27:57.115Z,100
2022-08-16T00:28:57.084Z,100
2022-08-16T00:30:09.091Z,100
2022-08-16T00:31:03.087Z,100
2022-08-16T00:32:05.811Z,100
2022-08-16T00:33:00.209Z,99.77
2022-08-16T00:33:57.444Z,99.56
2022-08-16T00:35:03.234Z,99.28
2022-08-16T00:35:57.357Z,99.26
2022-08-16T00:36:59.358Z,99.02
2022-08-16T00:37:59.615Z,98.72
2022-08-16T00:38:58.419Z,98.78
2022-08-16T00:39:59.497Z,98.67
2022-08-16T00:40:58.691Z,98.54
2022-08-16T00:41:58.354Z,98.53
2022-08-16T00:42:57.079Z,98.56
2022-08-16T00:43:57.382Z,98.73
2022-08-16T00:44:57.481Z,98.96
2022-08-16T00:46:22.500Z,99.1
2022-08-16T00:47:06.099Z,99.05
2022-08-16T00:47:57.570Z,98.92
2022-08-16T00:48:58.606Z,98.9
2022-08-16T00:49:58.924Z,98.84
2022-08-16T00:50:58.498Z,99.04
2022-08-16T00:51:57.421Z,99.08
2022-08-16T00:52:58.068Z,98.96
2022-08-16T00:53:57.246Z,98.86
2022-08-16T00:54:57.512Z,98.86
2022-08-16T00:55:58.526Z,99.29
2022-08-16T00:57:01.316Z,99.07
2022-08-16T00:58:02.304Z,98.87
2022-08-16T00:59:00.576Z,99.2
2022-08-16T01:00:01.796Z,99.33
2022-08-16T01:00:57.221Z,99.31
2022-08-16T01:01:57.492Z,99.58
2022-08-16T01:02:57.766Z,99.59
2022-08-16T01:03:57.565Z,99.89
2022-08-16T01:05:09.179Z,99.72
2022-08-16T01:05:57.196Z,99.65
2022-08-16T01:07:03.695Z,99.44
2022-08-16T01:07:57.077Z,99.15
2022-08-16T01:09:00.460Z,98.86
2022-08-16T01:09:58.384Z,98.56
2022-08-16T01:11:00.283Z,98.26
2022-08-16T01:11:58.158Z,97.88
2022-08-16T01:13:00.583Z,97.71
2022-08-16T01:13:57.127Z,97.2
2022-08-16T01:14:57.333Z,96.86
2022-08-16T01:15:57.184Z,96.55
2022-08-16T01:16:57.096Z,96.59
2022-08-16T01:17:57.090Z,96.63
2022-08-16T01:18:57.342Z,96.29
2022-08-16T01:20:01.435Z,96.04
2022-08-16T01:20:57.100Z,96.05
2022-08-16T01:22:48.740Z,96
2022-08-16T01:22:58.394Z,95.93
2022-08-16T01:24:03.120Z,95.92
2022-08-16T01:24:57.118Z,95.73
2022-08-16T01:26:33.894Z,95.72
2022-08-16T01:27:03.803Z,95.55
2022-08-16T01:27:57.108Z,95.17
2022-08-16T01:28:58.133Z,94.92
2022-08-16T01:30:01.132Z,94.66
2022-08-16T01:30:57.101Z,94.55
2022-08-16T01:31:57.087Z,93.88
2022-08-16T01:33:14.237Z,93.81
2022-08-16T01:33:58.139Z,93.1
2022-08-16T01:34:58.109Z,92.77
2022-08-16T01:35:58.105Z,92.55
2022-08-16T01:37:03.110Z,92.33
2022-08-16T01:37:58.240Z,92.16
2022-08-16T01:39:00.136Z,91.84
2022-08-16T01:39:57.191Z,91.73
2022-08-16T01:40:57.107Z,91.44
2022-08-16T01:41:57.113Z,91.16
2022-08-16T01:42:57.103Z,91.03
2022-08-16T01:44:01.290Z,90.88
2022-08-16T01:44:58.115Z,90.75
2022-08-16T01:46:00.127Z,90.72
2022-08-16T01:46:57.194Z,90.8
2022-08-16T01:48:00.111Z,90.92
2022-08-16T01:48:57.098Z,90.72
2022-08-16T01:50:41.682Z,90.81
2022-08-16T01:51:08.113Z,91
2022-08-16T01:51:57.103Z,90.9
2022-08-16T01:52:57.109Z,90.96
2022-08-16T01:53:59.104Z,91.09
2022-08-16T01:54:57.119Z,91.08
2022-08-16T01:55:58.120Z,91.25
2022-08-16T01:56:58.105Z,91.31
2022-08-16T01:58:01.115Z,91.41
2022-08-16T01:58:58.127Z,91.55
2022-08-16T01:59:57.094Z,91.52
2022-08-16T02:00:57.106Z,91.48
2022-08-16T02:02:01.296Z,91.59
2022-08-16T02:02:57.098Z,91.58
2022-08-16T02:04:10.496Z,91.65
2022-08-16T02:04:58.108Z,91.58
2022-08-16T02:05:58.110Z,91.68
2022-08-16T02:06:57.212Z,91.81
2022-08-16T02:07:57.112Z,91.82
2022-08-16T02:08:57.138Z,91.71
2022-08-16T02:10:03.121Z,91.9
2022-08-16T02:10:57.092Z,91.94
2022-08-16T02:11:57.104Z,92.02
2022-08-16T02:13:01.208Z,92.11
2022-08-16T02:13:57.097Z,92.17
2022-08-16T02:14:59.405Z,92.27
2022-08-16T02:15:57.103Z,92.2
2022-08-16T02:16:58.112Z,92.25
2022-08-16T02:17:57.160Z,92.26
2022-08-16T02:18:57.102Z,92.38
2022-08-16T02:20:01.102Z,92.44
2022-08-16T02:20:58.107Z,92.62
2022-08-16T02:22:07.621Z,92.69
2022-08-16T02:22:57.073Z,92.65
2022-08-16T02:23:57.094Z,92.63
2022-08-16T02:24:57.175Z,92.61
2022-08-16T02:25:57.083Z,92.58
2022-08-16T02:26:57.287Z,92.6
2022-08-16T02:27:57.130Z,92.87
2022-08-16T02:28:58.426Z,92.81
2022-08-16T02:30:04.850Z,92.87
2022-08-16T02:30:57.099Z,92.79
2022-08-16T02:32:49.441Z,92.83
2022-08-16T02:32:57.090Z,92.9
2022-08-16T02:33:57.317Z,92.75
2022-08-16T02:34:58.078Z,92.8
2022-08-16T02:36:00.404Z,92.75
2022-08-16T02:36:57.208Z,92.81
2022-08-16T02:38:01.438Z,92.86
2022-08-16T02:38:58.280Z,92.92
2022-08-16T02:39:57.158Z,92.92
2022-08-16T02:40:57.102Z,92.97
2022-08-16T02:41:57.093Z,92.98
2022-08-16T02:42:57.098Z,93
2022-08-16T02:43:58.106Z,93.12
2022-08-16T02:44:57.090Z,93.22
2022-08-16T02:45:57.094Z,93.4
2022-08-16T02:46:58.110Z,93.46
2022-08-16T02:48:28.177Z,93.72
2022-08-16T02:49:03.099Z,93.85
2022-08-16T02:50:53.024Z,93.93
2022-08-16T02:51:06.848Z,94.1
2022-08-16T02:51:57.197Z,94.26
2022-08-16T02:52:57.115Z,94.24
2022-08-16T02:53:58.106Z,94.54
2022-08-16T02:54:57.102Z,94.68
2022-08-16T02:55:57.104Z,94.85
2022-08-16T02:57:00.097Z,94.91
2022-08-16T02:57:58.110Z,95.02
2022-08-16T02:58:57.108Z,95.12
2022-08-16T02:59:57.108Z,95.31
2022-08-16T03:00:58.167Z,95.51
2022-08-16T03:01:57.213Z,95.62
2022-08-16T03:02:59.111Z,95.75
2022-08-16T03:04:29.518Z,95.79
2022-08-16T03:04:57.099Z,95.81
2022-08-16T03:05:57.102Z,95.8
2022-08-16T03:06:59.105Z,95.77
2022-08-16T03:07:57.107Z,95.72
2022-08-16T03:08:57.191Z,95.7
2022-08-16T03:10:01.231Z,95.84
2022-08-16T03:11:00.457Z,95.95
2022-08-16T03:11:57.439Z,95.83
2022-08-16T03:12:58.920Z,95.99
2022-08-16T03:13:59.604Z,96.12
2022-08-16T03:14:57.596Z,96.42
2022-08-16T03:15:56.896Z,96.42
2022-08-16T03:17:01.993Z,96.31
2022-08-16T03:17:57.520Z,96.34
2022-08-16T03:18:57.787Z,96.28
2022-08-16T03:20:02.412Z,96.19
2022-08-16T03:20:58.329Z,96.24
2022-08-16T03:21:57.925Z,96.21
2022-08-16T03:22:58.072Z,96.19
2022-08-16T03:23:57.140Z,96.09
2022-08-16T03:25:02.560Z,96.22
2022-08-16T03:25:57.097Z,96.19
2022-08-16T03:27:03.502Z,96.3
2022-08-16T03:27:59.831Z,96.4
2022-08-16T03:28:58.118Z,96.48
2022-08-16T03:29:57.102Z,96.42
2022-08-16T03:30:57.102Z,96.48
2022-08-16T03:32:01.343Z,96.41
2022-08-16T03:32:57.108Z,96.55
2022-08-16T03:33:57.129Z,96.62
2022-08-16T03:34:57.093Z,96.61
2022-08-16T03:36:20.181Z,96.62
2022-08-16T03:36:57.084Z,96.68
2022-08-16T03:38:03.779Z,96.61
2022-08-16T03:38:58.191Z,96.74
2022-08-16T03:40:02.772Z,96.79
2022-08-16T03:40:57.235Z,96.92
2022-08-16T03:42:01.080Z,96.8
2022-08-16T03:43:19.487Z,96.93
2022-08-16T03:43:57.496Z,97.14
2022-08-16T03:45:04.190Z,97.22
2022-08-16T03:45:57.158Z,97.27
2022-08-16T03:47:00.247Z,97.55
2022-08-16T03:48:01.281Z,97.56
2022-08-16T03:48:57.498Z,97.65
2022-08-16T03:49:57.237Z,97.49
2022-08-16T03:51:01.275Z,97.99
2022-08-16T03:51:57.763Z,97.92
2022-08-16T03:53:05.738Z,97.85
2022-08-16T03:54:03.501Z,98.11
2022-08-16T03:55:00.180Z,97.96
2022-08-16T03:55:58.502Z,98.21
2022-08-16T03:57:00.311Z,98.15
2022-08-16T03:57:57.359Z,98.29
2022-08-16T03:58:58.211Z,98.51
2022-08-16T03:59:57.405Z,98.54
2022-08-16T04:01:00.150Z,98.52
2022-08-16T04:01:57.116Z,98.66
2022-08-16T04:02:57.103Z,98.35
2022-08-16T04:03:57.093Z,98.51
2022-08-16T04:04:58.101Z,98.51
2022-08-16T04:05:57.153Z,98.43
2022-08-16T04:06:57.430Z,98.55
2022-08-16T04:07:57.169Z,98.42
2022-08-16T04:08:58.131Z,98.25
2022-08-16T04:10:00.190Z,98.04
2022-08-16T04:11:00.410Z,98.06
2022-08-16T04:11:57.102Z,97.97
2022-08-16T04:13:04.421Z,97.86
2022-08-16T04:14:08.346Z,97.63
2022-08-16T04:14:58.648Z,97.55
2022-08-16T04:15:57.103Z,97.56
2022-08-16T04:16:57.191Z,97.61
2022-08-16T04:17:57.492Z,97.63
2022-08-16T04:19:04.280Z,97.63
2022-08-16T04:20:00.195Z,97.45
2022-08-16T04:20:58.606Z,97.38
2022-08-16T04:21:58.146Z,97.39
2022-08-16T04:22:57.098Z,97.25
2022-08-16T04:23:57.126Z,97.21
2022-08-16T04:25:00.503Z,97.14
2022-08-16T04:26:01.944Z,97
2022-08-16T04:26:58.281Z,97.03
2022-08-16T04:28:28.752Z,96.87
2022-08-16T04:29:16.471Z,96.87
2022-08-16T04:30:02.671Z,96.99
2022-08-16T04:30:57.323Z,97.11
2022-08-16T04:32:00.413Z,97.07
2022-08-16T04:33:00.252Z,97.03
2022-08-16T04:33:57.354Z,96.91
2022-08-16T04:34:58.518Z,96.98
2022-08-16T04:35:57.212Z,97
2022-08-16T04:36:58.279Z,96.65
2022-08-16T04:37:57.109Z,96.57
2022-08-16T04:38:58.146Z,96.34
2022-08-16T04:39:58.158Z,96.3
2022-08-16T04:41:00.111Z,96.15
2022-08-16T04:42:10.854Z,96.2
2022-08-16T04:42:57.104Z,96.14
2022-08-16T04:43:58.122Z,96.13
2022-08-16T04:44:57.096Z,96.12
2022-08-16T04:46:01.123Z,96.05
2022-08-16T04:47:21.957Z,96.02
2022-08-16T04:47:58.106Z,95.99
2022-08-16T04:48:58.148Z,95.94
2022-08-16T04:49:57.112Z,95.87
2022-08-16T04:50:57.119Z,95.88
2022-08-16T04:51:57.098Z,95.65
2022-08-16T04:52:57.112Z,95.61
2022-08-16T04:53:57.116Z,95.54
2022-08-16T04:54:58.356Z,95.44
2022-08-16T04:55:57.089Z,95.29
2022-08-16T04:57:00.121Z,95.3
2022-08-16T04:57:57.099Z,95.11
2022-08-16T04:59:03.145Z,94.7
2022-08-16T04:59:57.112Z,94.52
2022-08-16T05:00:57.110Z,94.36
2022-08-16T05:02:00.203Z,93.93
2022-08-16T05:03:01.494Z,93.7
2022-08-16T05:04:03.145Z,93.35
2022-08-16T05:04:58.167Z,92.88
2022-08-16T05:06:05.061Z,92.77
2022-08-16T05:06:57.094Z,92.18
2022-08-16T05:08:01.140Z,91.99
2022-08-16T05:08:58.127Z,91.65
2022-08-16T05:09:57.101Z,91.62
2022-08-16T05:11:01.323Z,91.59
2022-08-16T05:12:00.113Z,91.72
2022-08-16T05:12:58.119Z,91.52
2022-08-16T05:14:06.707Z,91.46
2022-08-16T05:15:03.281Z,91.15
2022-08-16T05:15:58.108Z,90.99
2022-08-16T05:16:57.185Z,90.97
2022-08-16T05:18:03.613Z,90.68
2022-08-16T05:19:00.125Z,90.56
2022-08-16T05:20:00.124Z,90.55
2022-08-16T05:21:09.854Z,90.42
2022-08-16T05:21:57.108Z,90.65
2022-08-16T05:22:58.110Z,90.44
2022-08-16T05:24:03.126Z,90.5
2022-08-16T05:24:57.259Z,90.59
2022-08-16T05:25:57.256Z,90.29
2022-08-16T05:26:58.213Z,90.3
2022-08-16T05:27:58.183Z,90.5
2022-08-16T05:28:57.107Z,90.37
2022-08-16T05:30:34.242Z,90.25
2022-08-16T05:30:57.099Z,90.59
2022-08-16T05:31:57.100Z,90.75
2022-08-16T05:33:00.091Z,90.69
2022-08-16T05:33:57.098Z,90.36
2022-08-16T05:34:57.140Z,90.59
2022-08-16T05:35:58.095Z,90.48
2022-08-16T05:36:57.105Z,90.51
2022-08-16T05:37:58.250Z,90.57
2022-08-16T05:39:00.108Z,90.61
2022-08-16T05:39:57.220Z,90.72
2022-08-16T05:41:01.103Z,90.75
2022-08-16T05:41:57.201Z,90.92
2022-08-16T05:42:57.353Z,90.95
2022-08-16T05:44:00.106Z,90.45
2022-08-16T05:45:00.319Z,90.62
2022-08-16T05:45:58.401Z,90.45
2022-08-16T05:47:01.266Z,89.9
2022-08-16T05:48:01.374Z,89.77
2022-08-16T05:49:06.152Z,89.49
2022-08-16T05:49:58.102Z,89.71
2022-08-16T05:50:57.091Z,89.7
2022-08-16T05:51:57.387Z,88.79
2022-08-16T05:53:03.105Z,88.45
2022-08-16T05:53:57.100Z,88.71
2022-08-16T05:55:03.126Z,88.49
2022-08-16T05:55:57.106Z,87.8
2022-08-16T05:56:57.093Z,88.13
2022-08-16T05:57:57.115Z,88.05
2022-08-16T05:58:57.098Z,87.95
2022-08-16T06:00:05.780Z,87.39
2022-08-16T06:00:58.138Z,86.84
2022-08-16T06:01:57.130Z,86.6
2022-08-16T06:02:57.097Z,86.59
2022-08-16T06:04:01.105Z,86.71
2022-08-16T06:04:58.116Z,87.12
2022-08-16T06:06:00.531Z,86.64
2022-08-16T06:07:06.149Z,86.58
2022-08-16T06:08:00.121Z,86.24
2022-08-16T06:08:57.207Z,85.23
2022-08-16T06:09:57.096Z,85.63
2022-08-16T06:11:10.586Z,84.64
2022-08-16T06:12:00.119Z,84.48
2022-08-16T06:13:01.114Z,84.13
2022-08-16T06:14:00.096Z,83.91
2022-08-16T06:14:57.106Z,83.52
2022-08-16T06:15:57.104Z,83.4
2022-08-16T06:17:05.275Z,83.47
2022-08-16T06:17:57.165Z,83.51
2022-08-16T06:18:57.156Z,83.58
2022-08-16T06:19:57.112Z,82.15
2022-08-16T06:21:02.109Z,80.51
2022-08-16T06:21:58.101Z,79.46
2022-08-16T06:23:11.492Z,79.03
2022-08-16T06:23:57.077Z,76.64
2022-08-16T06:24:57.959Z,76
2022-08-16T06:25:59.462Z,75.51
2022-08-16T06:27:00.170Z,73.69
2022-08-16T06:28:01.436Z,72.23
2022-08-16T06:28:58.721Z,71.45
2022-08-16T06:29:56.973Z,71.62
2022-08-16T06:30:58.351Z,70.85
2022-08-16T06:31:58.395Z,71.22
2022-08-16T06:32:57.746Z,70.58
2022-08-16T06:33:58.037Z,68.24
2022-08-16T06:35:03.268Z,68.42
2022-08-16T06:36:01.798Z,66.95
2022-08-16T06:36:59.829Z,67.06
2022-08-16T06:37:57.102Z,66.03
2022-08-16T06:38:58.559Z,65.88
2022-08-16T06:39:57.138Z,66.65
2022-08-16T06:40:57.132Z,65.9
2022-08-16T06:41:57.103Z,64.57
2022-08-16T06:43:01.747Z,65.02
2022-08-16T06:43:57.096Z,64.23
2022-08-16T06:44:57.120Z,64.69
2022-08-16T06:45:57.101Z,65.45
2022-08-16T06:46:57.096Z,64.81
2022-08-16T06:48:00.123Z,64.76
2022-08-16T06:48:58.111Z,65
2022-08-16T06:50:00.172Z,63.63
2022-08-16T06:50:57.111Z,63.56
2022-08-16T06:52:02.806Z,63.75
2022-08-16T06:53:08.830Z,63.01
2022-08-16T06:53:57.108Z,62.73
2022-08-16T06:54:57.107Z,61.9
2022-08-16T06:55:57.106Z,61.24
2022-08-16T06:56:57.112Z,60.8
2022-08-16T06:57:57.106Z,60.66
2022-08-16T06:58:57.141Z,61.25
2022-08-16T07:00:03.102Z,61.36
2022-08-16T07:01:01.237Z,61.39
2022-08-16T07:02:00.178Z,60.57
2022-08-16T07:02:57.241Z,60.46
2022-08-16T07:04:00.149Z,60.98
2022-08-16T07:04:58.107Z,61.83
2022-08-16T07:05:57.119Z,62.41
2022-08-16T07:07:00.110Z,63.14
2022-08-16T07:07:57.090Z,62.25
2022-08-16T07:08:57.135Z,61.89
2022-08-16T07:09:57.117Z,61.95
2022-08-16T07:10:57.102Z,61.82
2022-08-16T07:12:03.864Z,60.79
2022-08-16T07:13:03.676Z,60.97
2022-08-16T07:14:23.544Z,60.63
2022-08-16T07:15:01.249Z,61.26
2022-08-16T07:15:57.107Z,61.43
2022-08-16T07:17:00.078Z,58.09
2022-08-16T07:17:57.098Z,57.83
2022-08-16T07:19:03.099Z,58.37
2022-08-16T07:20:30.477Z,57.47
2022-08-16T07:21:03.283Z,56.92
2022-08-16T07:22:01.120Z,56.8
2022-08-16T07:23:00.670Z,56.89
2022-08-16T07:24:05.978Z,56.96
2022-08-16T07:24:57.406Z,56.9
2022-08-16T07:26:00.085Z,57.41
2022-08-16T07:26:57.356Z,58.84
2022-08-16T07:27:58.316Z,58.8
2022-08-16T07:28:57.083Z,56.9
2022-08-16T07:29:58.378Z,56.53
2022-08-16T07:30:57.117Z,56.09
2022-08-16T07:31:57.213Z,55.99
2022-08-16T07:32:57.221Z,57.15
2022-08-16T07:33:58.403Z,56.35
2022-08-16T07:34:57.107Z,57.31
2022-08-16T07:35:57.140Z,56.01
2022-08-16T07:37:00.160Z,56.36
2022-08-16T07:37:57.106Z,54.79
2022-08-16T07:38:57.121Z,54.74
2022-08-16T07:39:57.120Z,53.87
2022-08-16T07:41:01.862Z,53.14
2022-08-16T07:41:58.254Z,52.22
2022-08-16T07:42:57.201Z,51.27
2022-08-16T07:43:57.096Z,50.61
2022-08-16T07:45:01.184Z,50.61
2022-08-16T07:45:57.105Z,51.35
2022-08-16T07:46:58.093Z,51.06
2022-08-16T07:47:57.108Z,50.96
2022-08-16T07:49:03.762Z,50.23
2022-08-16T07:50:00.150Z,49.46
2022-08-16T07:51:06.937Z,50.02
2022-08-16T07:51:58.260Z,50.01
2022-08-16T07:53:00.261Z,49.17
2022-08-16T07:54:09.833Z,48.54
2022-08-16T07:54:57.130Z,47.91
2022-08-16T07:55:57.098Z,48.24
2022-08-16T07:56:58.101Z,48.09
2022-08-16T07:58:03.475Z,48.47
2022-08-16T07:59:00.617Z,48.55
2022-08-16T08:00:00.125Z,49.01
2022-08-16T08:00:57.132Z,49.93
2022-08-16T08:01:58.112Z,50.85
2022-08-16T08:02:58.236Z,50.81
2022-08-16T08:03:58.195Z,50.8
2022-08-16T08:04:58.168Z,50.53
2022-08-16T08:05:57.098Z,52.13
2022-08-16T08:06:58.106Z,50.85
2022-08-16T08:08:01.118Z,51.93
2022-08-16T08:09:00.115Z,51.89
2022-08-16T08:09:57.100Z,51.44
2022-08-16T08:11:01.998Z,51.8
2022-08-16T08:12:05.435Z,52.69
2022-08-16T08:13:00.100Z,52.42
2022-08-16T08:14:00.789Z,51.97
2022-08-16T08:14:57.141Z,51.24
2022-08-16T08:15:57.114Z,50.74
2022-08-16T08:17:01.414Z,47.94
2022-08-16T08:18:28.874Z,48.34
2022-08-16T08:19:03.232Z,48.81
2022-08-16T08:19:57.093Z,46.88
2022-08-16T08:21:00.091Z,48.13
2022-08-16T08:22:06.098Z,47.59
2022-08-16T08:23:03.112Z,47.25
2022-08-16T08:23:57.125Z,47.04
2022-08-16T08:25:03.663Z,48.13
2022-08-16T08:25:57.113Z,46.85
2022-08-16T08:26:57.120Z,47.34
2022-08-16T08:28:00.110Z,47.73
2022-08-16T08:29:03.124Z,47.31
2022-08-16T08:30:09.439Z,47.22
2022-08-16T08:31:03.269Z,47.46
2022-08-16T08:31:58.109Z,46.15
2022-08-16T08:33:01.209Z,45.94
2022-08-16T08:33:57.104Z,46.1
2022-08-16T08:35:04.149Z,47.26
2022-08-16T08:36:01.296Z,46.32
2022-08-16T08:36:57.194Z,46.57
2022-08-16T08:37:58.320Z,47.16
2022-08-16T08:38:59.344Z,45.6
2022-08-16T08:39:57.101Z,45.44
2022-08-16T08:40:57.354Z,45.15
2022-08-16T08:41:57.121Z,45.83
2022-08-16T08:43:11.564Z,46.49
2022-08-16T08:43:57.256Z,45.91
2022-08-16T08:44:57.516Z,46.76
2022-08-16T08:45:57.638Z,46.45
2022-08-16T08:47:02.352Z,44.87
2022-08-16T08:47:59.440Z,44.75
2022-08-16T08:49:03.373Z,46.11
2022-08-16T08:50:01.102Z,44.65
2022-08-16T08:51:00.359Z,44.16
2022-08-16T08:52:00.145Z,45.22
2022-08-16T08:52:58.334Z,44.36
2022-08-16T08:54:00.529Z,44.21
2022-08-16T08:54:57.421Z,43.73
2022-08-16T08:56:01.315Z,43.95
2022-08-16T08:56:57.281Z,43.24
2022-08-16T08:57:58.652Z,41.63
2022-08-16T08:59:06.028Z,42.45
2022-08-16T08:59:58.260Z,42.94
2022-08-16T09:01:01.767Z,41.84
2022-08-16T09:02:00.575Z,42.74
2022-08-16T09:02:58.622Z,43.42
2022-08-16T09:03:57.264Z,42.6
2022-08-16T09:05:00.235Z,42.52
2022-08-16T09:05:57.130Z,43.33
2022-08-16T09:06:58.699Z,43.17
2022-08-16T09:08:05.950Z,42.53
2022-08-16T09:08:58.213Z,42.41
2022-08-16T09:10:06.984Z,42.99
2022-08-16T09:11:03.876Z,43.27
2022-08-16T09:12:04.344Z,42.78
2022-08-16T09:12:58.118Z,40.81
2022-08-16T09:13:58.094Z,40.74
2022-08-16T09:14:57.108Z,41.01
2022-08-16T09:15:57.096Z,41.52
2022-08-16T09:17:05.525Z,41.46
2022-08-16T09:17:57.099Z,41.86
2022-08-16T09:19:03.997Z,42.63
2022-08-16T09:20:04.764Z,43.52
2022-08-16T09:21:03.271Z,43.41
2022-08-16T09:21:58.099Z,41.47
2022-08-16T09:22:58.121Z,42.48
2022-08-16T09:23:57.091Z,42.82
2022-08-16T09:25:11.294Z,43.34
2022-08-16T09:25:57.099Z,41.69
2022-08-16T09:26:57.089Z,43.35
2022-08-16T09:28:09.118Z,41.35
2022-08-16T09:29:14.156Z,42.53
2022-08-16T09:30:02.762Z,41.99
2022-08-16T09:30:57.122Z,41.21
2022-08-16T09:31:57.093Z,41.46
2022-08-16T09:32:57.091Z,42.69
2022-08-16T09:33:57.095Z,43.84
2022-08-16T09:35:00.168Z,43.38
2022-08-16T09:35:57.097Z,43.72
2022-08-16T09:37:01.110Z,42.92
2022-08-16T09:38:01.395Z,43.95
2022-08-16T09:39:01.100Z,42.47
2022-08-16T09:39:57.323Z,43.3
2022-08-16T09:41:00.220Z,42.78
2022-08-16T09:41:57.315Z,42.7
2022-08-16T09:43:01.888Z,42.17
2022-08-16T09:45:09.974Z,41.54
2022-08-16T09:45:10.033Z,41.46
2022-08-16T09:45:56.716Z,39.24
2022-08-16T09:47:00.146Z,41.33
2022-08-16T09:47:59.367Z,40.95
2022-08-16T09:48:58.725Z,39.37
2022-08-16T09:49:57.076Z,38.85
2022-08-16T09:50:58.324Z,39.53
2022-08-16T09:51:58.584Z,39.09
2022-08-16T09:52:58.969Z,38.81
2022-08-16T09:53:57.144Z,38.02
2022-08-16T09:54:57.106Z,38.04
2022-08-16T09:56:00.136Z,38.75
2022-08-16T09:56:58.106Z,39.24
2022-08-16T09:57:57.094Z,38.13
2022-08-16T09:59:05.468Z,38.03
2022-08-16T09:59:58.096Z,38.97
2022-08-16T10:01:00.920Z,37.9
2022-08-16T10:01:57.100Z,37.83
2022-08-16T10:02:59.155Z,38.66
2022-08-16T10:04:04.088Z,37.37
2022-08-16T10:04:57.437Z,37.62
2022-08-16T10:05:57.096Z,37.41
2022-08-16T10:07:58.094Z,38.11
2022-08-16T10:09:04.110Z,39.52
2022-08-16T10:09:58.109Z,37.97
2022-08-16T10:10:57.132Z,38.66
2022-08-16T10:12:06.329Z,38.35
2022-08-16T10:12:58.108Z,37.29
2022-08-16T10:13:57.091Z,38.95
2022-08-16T10:14:57.147Z,37.12
2022-08-16T10:15:57.151Z,36.74
2022-08-16T10:17:03.131Z,36.35
2022-08-16T10:18:26.970Z,36.64
2022-08-16T10:19:06.844Z,36.47
2022-08-16T10:19:58.102Z,36.5
2022-08-16T10:21:00.135Z,36.42
2022-08-16T10:21:59.113Z,36.55
2022-08-16T10:23:06.378Z,36.25
2022-08-16T10:23:57.097Z,35.48
2022-08-16T10:25:01.212Z,34.98
2022-08-16T10:27:00.155Z,35.72
2022-08-16T10:27:22.104Z,35.8
2022-08-16T10:28:26.484Z,36.63
2022-08-16T10:28:57.080Z,36.51
2022-08-16T10:30:06.683Z,37.42
2022-08-16T10:31:00.092Z,38.25
2022-08-16T10:31:58.084Z,37.48
2022-08-16T10:32:57.099Z,36.93
2022-08-16T10:33:57.080Z,36.01
2022-08-16T10:34:57.180Z,36.79
2022-08-16T10:36:04.073Z,37.2
2022-08-16T10:36:57.103Z,35.75
2022-08-16T10:37:58.228Z,35.77
2022-08-16T10:38:58.156Z,37.18
2022-08-16T10:39:57.468Z,37.41
2022-08-16T10:40:57.083Z,38.13
2022-08-16T10:42:00.138Z,38
2022-08-16T10:42:57.347Z,36.82
2022-08-16T10:43:57.509Z,36.81
2022-08-16T10:44:57.111Z,36.25
2022-08-16T10:46:01.583Z,37.61
2022-08-16T10:46:57.416Z,36.39
2022-08-16T10:48:03.570Z,36.67
2022-08-16T10:48:57.530Z,35.35
2022-08-16T10:49:58.533Z,35.31
2022-08-16T10:51:00.116Z,34.89
2022-08-16T10:52:18.574Z,36.55
2022-08-16T10:53:00.472Z,34.04
2022-08-16T10:53:57.142Z,34.45
2022-08-16T10:55:40.560Z,33.95
2022-08-16T10:56:03.436Z,35.65
2022-08-16T10:57:00.481Z,34.3
2022-08-16T10:57:58.297Z,35.05
2022-08-16T10:58:57.622Z,35.14
2022-08-16T11:00:01.255Z,34.99
2022-08-16T11:01:00.445Z,35.37
2022-08-16T11:03:03.853Z,34.23
2022-08-16T11:04:01.010Z,34.36
2022-08-16T11:05:06.175Z,33.93
2022-08-16T11:06:00.397Z,33.52
2022-08-16T11:07:07.828Z,33.53
2022-08-16T11:07:57.310Z,33.48
2022-08-16T11:09:28.677Z,33.31
2022-08-16T11:10:19.629Z,33.62
2022-08-16T11:11:05.551Z,33.47
2022-08-16T11:12:13.443Z,32.52
2022-08-16T11:12:57.168Z,33.32
2022-08-16T11:14:06.210Z,32.98
2022-08-16T11:15:16.988Z,33.53
2022-08-16T11:16:00.362Z,32.15
2022-08-16T11:17:09.470Z,32.26
2022-08-16T11:19:06.653Z,31.45
2022-08-16T11:20:40.997Z,32.58
2022-08-16T11:20:57.099Z,33.45
2022-08-16T11:22:23.482Z,33.92
2022-08-16T11:22:57.095Z,34.26
2022-08-16T11:24:00.213Z,34.43
2022-08-16T11:26:06.286Z,33.74
2022-08-16T11:26:08.094Z,33.34
2022-08-16T11:27:19.450Z,32.26
2022-08-16T11:27:58.115Z,33.62
2022-08-16T11:29:15.294Z,33.3
2022-08-16T11:29:57.098Z,33.88
2022-08-16T11:31:01.110Z,34.41
2022-08-16T11:31:57.314Z,34.48
2022-08-16T11:32:57.107Z,34.14
2022-08-16T11:33:58.135Z,33.42
2022-08-16T11:35:10.083Z,34.53
2022-08-16T11:36:28.464Z,33.85
2022-08-16T11:37:03.125Z,33.17
2022-08-16T11:38:23.755Z,33.38
2022-08-16T11:39:00.733Z,32.89
2022-08-16T11:40:01.139Z,33.44
2022-08-16T11:40:57.128Z,34.13
2022-08-16T11:41:58.107Z,33.95
2022-08-16T11:42:57.144Z,34.37
2022-08-16T11:43:57.106Z,35.61
2022-08-16T11:45:00.320Z,36.12
2022-08-16T11:45:58.080Z,35.21
2022-08-16T11:46:57.085Z,35.6
2022-08-16T11:47:57.267Z,32.76
2022-08-16T11:48:57.085Z,34.23
2022-08-16T11:49:57.215Z,35.56
2022-08-16T11:50:58.509Z,31.89
2022-08-16T11:51:58.786Z,32.49
2022-08-16T11:52:57.512Z,32.37
2022-08-16T11:53:57.996Z,32.98
2022-08-16T11:55:01.266Z,33.19
2022-08-16T11:55:57.387Z,32.84
2022-08-16T11:56:58.711Z,32.63
2022-08-16T11:58:01.217Z,30.9
2022-08-16T11:58:58.372Z,31.07
2022-08-16T11:59:57.206Z,30.89
2022-08-16T12:00:57.511Z,32.64
2022-08-16T12:02:04.258Z,29.46
2022-08-16T12:02:57.202Z,30.03
2022-08-16T12:03:57.332Z,30.77
2022-08-16T12:04:57.288Z,31.77
2022-08-16T12:05:57.076Z,32.97
2022-08-16T12:06:57.076Z,32.38
2022-08-16T12:07:57.256Z,31.43
2022-08-16T12:09:01.798Z,32.12
2022-08-16T12:09:58.203Z,32.3
2022-08-16T12:11:02.265Z,31.34
2022-08-16T12:11:57.440Z,31.62
2022-08-16T12:13:03.445Z,31.51
2022-08-16T12:13:57.410Z,31.94
2022-08-16T12:15:01.203Z,31.98
2022-08-16T12:15:57.466Z,32.63
2022-08-16T12:16:58.191Z,33.89
2022-08-16T12:17:57.384Z,35.18
2022-08-16T12:18:57.347Z,35.53
2022-08-16T12:19:57.106Z,36.06
2022-08-16T12:21:00.371Z,35.86
2022-08-16T12:22:00.337Z,36.51
2022-08-16T12:22:58.495Z,36.08
2022-08-16T12:23:57.109Z,35.23
2022-08-16T12:24:57.109Z,34.65
2022-08-16T12:26:00.501Z,34.31
2022-08-16T12:26:57.094Z,33.93
2022-08-16T12:27:58.108Z,33.08
2022-08-16T12:28:58.105Z,32.79
2022-08-16T12:30:00.146Z,32.78
2022-08-16T12:30:57.091Z,32.82
2022-08-16T12:32:26.988Z,33.07
2022-08-16T12:33:00.143Z,32.41
2022-08-16T12:34:00.110Z,33.23
2022-08-16T12:34:57.121Z,32.24
2022-08-16T12:35:57.103Z,31.05
2022-08-16T12:36:57.113Z,31.02
2022-08-16T12:37:58.112Z,31.58
2022-08-16T12:38:57.110Z,30.07
2022-08-16T12:39:57.130Z,31.16
2022-08-16T12:41:00.131Z,30.87
2022-08-16T12:41:58.113Z,30.62
2022-08-16T12:43:01.109Z,30.78
2022-08-16T12:44:03.118Z,29.84
2022-08-16T12:44:57.123Z,30.11
2022-08-16T12:46:00.135Z,29.53
2022-08-16T12:46:57.104Z,28.7
2022-08-16T12:48:22.426Z,28.98
2022-08-16T12:48:58.153Z,28.42
2022-08-16T12:49:58.106Z,28
2022-08-16T12:51:03.127Z,27.76
2022-08-16T12:52:03.115Z,27.28
2022-08-16T12:52:59.291Z,27.1
2022-08-16T12:53:57.093Z,27.85
2022-08-16T12:54:57.095Z,28.8
2022-08-16T12:55:57.099Z,28.24
2022-08-16T12:56:57.101Z,27.43
2022-08-16T12:58:01.108Z,27.51
2022-08-16T12:58:58.091Z,28.97
2022-08-16T12:59:58.108Z,28.42